createdAt,value
2018-11-04T00:00:30.415Z,7.10
2018-11-04T00:05:13.630Z,6.47
2018-11-04T00:09:56.527Z,5.87
2018-11-04T00:14:39.462Z,6.60
2018-11-04T00:19:24.532Z,7.13
2018-11-04T00:24:07.429Z,8.13
2018-11-04T00:28:51.477Z,6.40
2018-11-04T00:33:34.410Z,6.40
2018-11-04T00:38:24.087Z,6.80
2018-11-04T00:43:06.973Z,5.20
2018-11-04T00:47:51.987Z,6.80
2018-11-04T00:52:34.878Z,8.37
2018-11-04T00:57:19.071Z,5.77
2018-11-04T01:02:02.011Z,5.97
2018-11-04T01:06:45.148Z,6.57
2018-11-04T01:11:28.070Z,6.57
2018-11-04T01:16:12.078Z,7.90
2018-11-04T01:20:54.970Z,6.70
2018-11-04T01:25:38.857Z,5.87
2018-11-04T01:30:21.859Z,8.23
2018-11-04T01:35:05.566Z,7.03
2018-11-04T01:39:48.428Z,6.30
2018-11-04T01:44:31.310Z,6.97
2018-11-04T01:49:14.320Z,10.30
2018-11-04T01:53:57.210Z,12.77
2018-11-04T01:58:42.081Z,7.40
2018-11-04T02:03:24.956Z,10.40
2018-11-04T02:08:09.924Z,10.03
2018-11-04T02:12:52.835Z,8.07
2018-11-04T02:17:38.155Z,6.57
2018-11-04T02:22:21.078Z,6.13
2018-11-04T02:27:06.161Z,7.43
2018-11-04T02:31:49.078Z,7.30
2018-11-04T02:36:33.177Z,6.77
2018-11-04T02:41:16.056Z,5.63
2018-11-04T02:45:59.160Z,5.40
2018-11-04T02:50:42.133Z,5.80
2018-11-04T02:55:26.222Z,5.90
2018-11-04T03:00:13.397Z,6.30
2018-11-04T03:04:56.665Z,6.10
2018-11-04T03:09:39.571Z,5.33
2018-11-04T03:14:22.438Z,6.23
2018-11-04T03:19:05.606Z,7.27
2018-11-04T03:23:48.506Z,7.90
2018-11-04T03:28:32.523Z,6.00
2018-11-04T03:33:15.442Z,5.53
2018-11-04T03:37:59.559Z,5.10
2018-11-04T03:42:42.860Z,4.73
2018-11-04T03:47:26.866Z,4.87
2018-11-04T03:52:09.773Z,5.13
2018-11-04T03:56:53.934Z,5.63
2018-11-04T04:01:36.892Z,5.17
2018-11-04T04:06:19.937Z,5.00
2018-11-04T04:11:02.921Z,5.13
2018-11-04T04:15:47.007Z,4.70
2018-11-04T04:20:29.934Z,5.77
2018-11-04T04:25:13.304Z,4.80
2018-11-04T04:29:56.301Z,5.07
2018-11-04T04:36:10.228Z,5.03
2018-11-04T04:40:54.873Z,4.80
2018-11-04T04:45:39.050Z,6.00
2018-11-04T04:50:24.109Z,5.73
2018-11-04T04:55:07.149Z,5.93
2018-11-04T04:59:51.571Z,5.47
2018-11-04T05:04:35.591Z,7.17
2018-11-04T05:09:18.936Z,4.53
2018-11-04T05:14:02.120Z,4.90
2018-11-04T05:18:46.198Z,4.67
2018-11-04T05:23:30.813Z,5.07
2018-11-04T05:28:15.201Z,4.90
2018-11-04T05:32:58.701Z,7.47
2018-11-04T05:37:42.151Z,5.33
2018-11-04T05:42:26.143Z,5.30
2018-11-04T05:47:11.735Z,4.33
2018-11-04T05:51:59.191Z,5.10
2018-11-04T05:56:49.717Z,5.37
2018-11-04T06:01:33.741Z,5.70
2018-11-04T06:06:19.601Z,4.47
2018-11-04T06:11:06.557Z,4.77
2018-11-04T06:15:50.732Z,4.33
2018-11-04T06:20:33.675Z,4.53
2018-11-04T06:25:16.655Z,4.67
2018-11-04T06:29:59.505Z,4.93
2018-11-04T06:34:43.523Z,4.00
2018-11-04T06:39:26.390Z,5.10
2018-11-04T06:44:09.263Z,4.17
2018-11-04T06:48:52.326Z,3.80
2018-11-04T06:53:35.222Z,4.50
2018-11-04T06:58:19.151Z,4.13
2018-11-04T07:03:02.031Z,4.33
2018-11-04T07:07:45.187Z,4.03
2018-11-04T07:12:28.491Z,2.87
2018-11-04T07:17:12.459Z,2.57
2018-11-04T07:21:55.371Z,2.63
2018-11-04T07:26:38.688Z,2.77
2018-11-04T07:31:21.590Z,3.00
2018-11-04T07:36:05.171Z,2.87
2018-11-04T07:40:51.323Z,2.20
2018-11-04T07:45:34.373Z,2.23
2018-11-04T07:50:17.234Z,2.37
2018-11-04T07:55:00.143Z,4.37
2018-11-04T07:59:43.104Z,2.80
2018-11-04T08:04:26.293Z,2.37
2018-11-04T08:09:09.988Z,3.27
2018-11-04T08:13:52.897Z,4.33
2018-11-04T08:18:37.886Z,3.60
2018-11-04T08:23:20.828Z,2.33
2018-11-04T08:28:05.387Z,2.23
2018-11-04T08:32:48.254Z,2.03
2018-11-04T08:37:32.343Z,2.03
2018-11-04T08:42:15.194Z,3.37
2018-11-04T08:46:59.247Z,2.97
2018-11-04T08:51:42.124Z,2.27
2018-11-04T08:56:25.149Z,4.57
2018-11-04T09:01:08.098Z,2.90
2018-11-04T09:05:52.069Z,2.43
2018-11-04T09:10:35.051Z,2.47
2018-11-04T09:15:18.116Z,2.63
2018-11-04T09:20:01.027Z,2.80
2018-11-04T09:24:44.155Z,2.73
2018-11-04T09:29:27.775Z,2.47
2018-11-04T09:34:14.357Z,2.77
2018-11-04T09:38:57.227Z,2.80
2018-11-04T09:43:40.127Z,2.50
2018-11-04T09:48:23.179Z,2.60
2018-11-04T09:53:06.742Z,3.50
2018-11-04T09:57:50.772Z,2.73
2018-11-04T10:02:33.694Z,2.60
2018-11-04T10:07:17.848Z,3.97
2018-11-04T10:12:00.771Z,2.47
2018-11-04T10:16:44.827Z,2.90
2018-11-04T10:21:27.722Z,3.07
2018-11-04T10:26:12.685Z,2.33
2018-11-04T10:30:55.604Z,2.47
2018-11-04T10:35:38.502Z,2.67
2018-11-04T10:40:21.403Z,2.07
2018-11-04T10:45:07.610Z,2.17
2018-11-04T10:49:50.537Z,2.20
2018-11-04T10:54:34.509Z,3.00
2018-11-04T10:59:17.474Z,2.70
2018-11-04T11:04:04.685Z,2.40
2018-11-04T11:08:47.651Z,2.27
2018-11-04T11:13:32.171Z,2.60
2018-11-04T11:18:15.922Z,2.37
2018-11-04T11:22:58.999Z,2.87
2018-11-04T11:27:45.548Z,3.33
2018-11-04T11:32:28.438Z,2.73
2018-11-04T11:37:14.577Z,2.20
2018-11-04T11:41:57.471Z,2.50
2018-11-04T11:46:44.147Z,2.67
2018-11-04T11:51:27.115Z,2.93
2018-11-04T11:56:11.223Z,5.40
2018-11-04T12:00:54.084Z,3.17
2018-11-04T12:05:40.541Z,3.10
2018-11-04T12:10:23.435Z,4.37
2018-11-04T12:15:12.114Z,1.97
2018-11-04T12:19:55.149Z,3.63
2018-11-04T12:24:39.419Z,4.83
2018-11-04T12:29:23.486Z,3.73
2018-11-04T12:34:09.145Z,4.13
2018-11-04T12:38:52.055Z,6.20
2018-11-04T12:43:36.202Z,5.93
2018-11-04T12:48:19.129Z,3.10
2018-11-04T12:53:02.051Z,3.37
2018-11-04T12:57:46.112Z,2.83
2018-11-04T13:02:29.037Z,2.33
2018-11-04T13:07:15.755Z,2.63
2018-11-04T13:11:58.711Z,3.03
2018-11-04T13:16:47.795Z,3.67
2018-11-04T13:21:31.684Z,4.77
2018-11-04T13:26:18.510Z,7.23
2018-11-04T13:31:01.432Z,4.20
2018-11-04T13:35:45.607Z,4.63
2018-11-04T13:40:28.529Z,2.83
2018-11-04T13:45:12.236Z,3.47
2018-11-04T13:49:55.198Z,3.13
2018-11-04T13:54:40.497Z,3.67
2018-11-04T13:59:24.851Z,4.60
2018-11-04T14:04:07.924Z,3.70
2018-11-04T14:08:50.846Z,4.00
2018-11-04T14:13:34.823Z,3.23
2018-11-04T14:18:17.795Z,3.80
2018-11-04T14:23:00.679Z,3.20
2018-11-04T14:27:44.683Z,3.27
2018-11-04T14:32:27.657Z,5.00
2018-11-04T14:37:12.726Z,3.90
2018-11-04T14:41:55.634Z,4.67
2018-11-04T14:46:41.592Z,3.80
2018-11-04T14:51:24.464Z,5.30
2018-11-04T14:56:11.163Z,3.83
2018-11-04T15:00:54.138Z,7.03
2018-11-04T15:05:38.326Z,4.40
2018-11-04T15:10:21.199Z,7.67
2018-11-04T15:15:08.252Z,5.90
2018-11-04T15:19:51.240Z,4.27
2018-11-04T15:24:34.374Z,5.60
2018-11-04T15:29:17.257Z,21.70
2018-11-04T15:34:03.562Z,30.10
2018-11-04T15:38:46.458Z,5.47
2018-11-04T15:43:30.582Z,5.20
2018-11-04T15:48:13.528Z,4.27
2018-11-04T15:52:56.433Z,3.90
2018-11-04T15:57:39.746Z,3.83
2018-11-04T16:02:23.614Z,4.20
2018-11-04T16:07:09.572Z,3.83
2018-11-04T16:11:52.516Z,3.70
2018-11-04T16:16:35.579Z,3.10
2018-11-04T16:21:18.961Z,3.43
2018-11-04T16:26:05.403Z,3.80
2018-11-04T16:30:50.245Z,4.40
2018-11-04T16:35:33.266Z,4.20
2018-11-04T16:40:16.281Z,4.90
2018-11-04T16:45:00.114Z,4.87
2018-11-04T16:49:43.430Z,19.17
2018-11-04T16:54:26.586Z,11.50
2018-11-04T16:59:10.395Z,10.43
2018-11-04T17:03:53.635Z,10.23
2018-11-04T17:08:36.522Z,6.70
2018-11-04T17:13:19.603Z,7.33
2018-11-04T17:18:02.586Z,5.83
2018-11-04T17:22:45.809Z,5.77
2018-11-04T17:27:29.837Z,6.77
2018-11-04T17:32:12.953Z,6.17
2018-11-04T17:36:57.928Z,6.50
2018-11-04T17:41:41.163Z,6.27
2018-11-04T17:46:26.272Z,5.90
2018-11-04T17:51:09.221Z,6.13
2018-11-04T17:55:51.480Z,5.10
2018-11-04T18:00:34.989Z,5.83
2018-11-04T18:05:18.037Z,6.73
2018-11-04T18:10:00.988Z,5.47
2018-11-04T18:14:47.371Z,3.20
2018-11-04T18:19:33.892Z,3.83
2018-11-04T18:24:19.965Z,4.00
2018-11-04T18:55:21.692Z,3.17
2018-11-04T19:21:47.345Z,3.00
2018-11-04T19:26:43.422Z,2.97
2018-11-04T19:31:26.492Z,3.40
2018-11-04T19:36:09.358Z,3.10
2018-11-04T19:40:53.247Z,2.97
2018-11-04T19:50:33.049Z,3.37
2018-11-04T19:55:16.988Z,3.20
2018-11-04T20:00:00.829Z,3.20
2018-11-04T20:04:44.153Z,3.17
2018-11-04T20:09:27.262Z,2.90
2018-11-04T20:14:14.686Z,3.50
2018-11-04T20:19:03.188Z,3.97
2018-11-04T20:23:46.503Z,3.13
2018-11-04T20:28:29.753Z,3.37
2018-11-04T20:33:14.372Z,3.40
2018-11-04T20:37:57.551Z,3.13
2018-11-04T20:42:41.943Z,3.00
2018-11-04T20:47:30.393Z,3.23
2018-11-04T20:52:20.385Z,3.00
2018-11-04T20:57:08.987Z,3.17
2018-11-04T21:01:52.128Z,2.80
2018-11-04T21:06:35.425Z,3.03
2018-11-04T21:11:18.467Z,3.33
2018-11-04T21:16:01.796Z,3.53
2018-11-04T21:20:45.068Z,3.37
2018-11-04T21:25:28.386Z,3.17
2018-11-04T21:30:12.501Z,3.97
2018-11-04T21:34:56.618Z,3.27
2018-11-04T21:39:39.639Z,3.50
2018-11-04T21:44:22.945Z,3.23
2018-11-04T21:49:05.921Z,3.40
2018-11-04T21:53:49.080Z,3.03
2018-11-04T21:58:32.089Z,4.00
2018-11-04T22:03:15.436Z,3.30
2018-11-04T22:07:58.320Z,3.77
2018-11-04T22:12:42.792Z,4.00
2018-11-04T22:17:25.863Z,3.97
2018-11-04T22:22:10.768Z,3.40
2018-11-04T22:26:53.722Z,4.00
2018-11-04T22:31:36.655Z,3.93
2018-11-04T22:36:20.891Z,4.30
2018-11-04T22:41:03.839Z,4.40
2018-11-04T22:45:46.910Z,3.93
2018-11-04T22:50:29.836Z,4.37
2018-11-04T22:55:13.805Z,3.73
2018-11-04T22:59:56.714Z,4.30
2018-11-04T23:04:46.148Z,4.33
2018-11-04T23:09:29.093Z,4.03
2018-11-04T23:14:13.154Z,4.10
2018-11-04T23:18:56.093Z,3.63
2018-11-04T23:23:40.204Z,3.50
2018-11-04T23:28:23.159Z,3.60
2018-11-04T23:33:07.198Z,3.70
2018-11-04T23:37:50.086Z,3.43
2018-11-04T23:42:33.257Z,3.37
2018-11-04T23:47:16.193Z,3.77
2018-11-04T23:52:00.308Z,3.37
2018-11-04T23:56:52.109Z,3.97
